Time;durP1;ratioP1;P1;durP2;ratioP2;P2;SDS_P1;SDS_P2;PMS_P1;PMS_P2;Temp;Humidity;BMP_temperature;BMP_pressure;BME280_temperature;BME280_humidity;BME280_pressure;Samples;Min_cycle;Max_cycle;Signal;HPM_P1;HPM_P2
2022/11/28 00:02:54;;;;;;;64.13;16.23;;;;;3.80;96358.00;;;;8498640;28;20205;-74
2022/11/28 00:06:57;;;;;;;72.00;15.17;;;;;3.80;96349.00;;;;8499002;28;20192;-74
2022/11/28 00:11:05;;;;;;;67.67;17.53;;;;;3.80;96350.00;;;;8498464;27;20190;-73
2022/11/28 00:15:11;;;;;;;61.10;13.87;;;;;3.80;96333.00;;;;8498794;28;20202;-73
2022/11/28 00:19:14;;;;;;;67.90;16.60;;;;;3.80;96331.00;;;;8498070;27;20197;-73
2022/11/28 00:23:17;;;;;;;68.07;16.07;;;;;3.80;96326.00;;;;8498426;28;20527;-73
2022/11/28 00:27:22;;;;;;;59.33;14.17;;;;;3.80;96324.00;;;;8497720;28;20603;-73
2022/11/28 00:31:55;;;;;;;69.67;17.30;;;;;3.80;96327.00;;;;8498904;27;20217;-73
2022/11/28 00:36:00;;;;;;;64.93;14.37;;;;;3.80;96324.00;;;;8503985;27;20204;-73
2022/11/28 00:40:03;;;;;;;64.37;15.43;;;;;3.70;96324.00;;;;8505066;27;20535;-76
2022/11/28 00:44:41;;;;;;;69.70;16.90;;;;;3.70;96324.00;;;;8503493;27;20218;-75
2022/11/28 00:48:45;;;;;;;63.07;15.37;;;;;3.70;96312.00;;;;8504158;27;20198;-75
2022/11/28 00:53:22;;;;;;;64.73;17.07;;;;;3.70;96317.00;;;;8503717;27;20202;-76
2022/11/28 00:57:25;;;;;;;52.63;15.50;;;;;3.70;96309.00;;;;8504842;27;20596;-76
2022/11/28 01:02:04;;;;;;;59.27;14.50;;;;;3.70;96299.00;;;;8503933;27;20204;-76
2022/11/28 01:06:08;;;;;;;57.37;14.93;;;;;3.60;96298.00;;;;8503949;27;20551;-75
2022/11/28 01:10:12;;;;;;;68.97;16.50;;;;;3.60;96289.00;;;;8502982;27;20198;-76
2022/11/28 01:14:15;;;;;;;62.40;15.23;;;;;3.70;96288.00;;;;8503417;27;20201;-76
2022/11/28 01:18:54;;;;;;;67.03;15.83;;;;;3.60;96285.00;;;;8502634;27;20250;-76
2022/11/28 01:22:57;;;;;;;63.33;14.90;;;;;3.60;96286.00;;;;8503668;27;20197;-76
2022/11/28 01:27:00;;;;;;;59.37;16.10;;;;;3.60;96278.00;;;;8502717;27;20688;-76
2022/11/28 01:31:37;;;;;;;62.80;15.83;;;;;3.60;96265.00;;;;8502663;27;20258;-76
2022/11/28 01:35:42;;;;;;;59.13;15.17;;;;;3.60;96264.00;;;;8502336;27;20200;-76
2022/11/28 01:39:45;;;;;;;65.77;15.97;;;;;3.50;96270.00;;;;8502881;27;20197;-76
2022/11/28 01:44:29;;;;;;;66.53;16.53;;;;;3.50;96274.00;;;;8502647;27;20525;-76
2022/11/28 01:48:40;;;;;;;75.03;15.33;;;;;3.50;96264.00;;;;8503200;27;20599;-76
2022/11/28 01:52:51;;;;;;;58.90;14.20;;;;;3.50;96267.00;;;;8501735;27;20197;-75
2022/11/28 01:56:58;;;;;;;60.70;15.53;;;;;3.50;96274.00;;;;8502670;27;20202;-75
2022/11/28 02:01:02;;;;;;;66.83;16.93;;;;;3.50;96271.00;;;;8502249;27;20531;-76
2022/11/28 02:05:08;;;;;;;64.87;15.23;;;;;3.40;96258.00;;;;8501297;27;20221;-75
2022/11/28 02:09:43;;;;;;;60.10;15.37;;;;;3.40;96256.00;;;;8502531;27;20186;-76
2022/11/28 02:13:57;;;;;;;58.07;14.70;;;;;3.40;96247.00;;;;8502388;27;20624;-75
2022/11/28 02:18:18;;;;;;;79.33;17.13;;;;;3.40;96237.00;;;;8501306;27;20232;-75
2022/11/28 02:22:46;;;;;;;62.03;16.53;;;;;3.40;96229.00;;;;8501610;27;20695;-75
2022/11/28 02:27:12;;;;;;;68.33;15.70;;;;;3.40;96223.00;;;;8501932;27;20226;-76
2022/11/28 02:31:26;;;;;;;54.80;15.50;;;;;3.50;96231.00;;;;8498014;27;20266;-76
2022/11/28 02:40:59;;;;;;;50.07;15.97;;;;;3.40;96236.00;;;;8500762;27;20221;-76
2022/11/28 02:45:23;;;;;;;60.60;16.13;;;;;3.50;96238.00;;;;8500155;27;20224;-76
2022/11/28 02:49:30;;;;;;;58.93;16.27;;;;;3.50;96240.00;;;;8500748;27;20633;-76
2022/11/28 02:53:37;;;;;;;61.17;16.13;;;;;3.50;96247.00;;;;8500524;27;20654;-77
2022/11/28 02:57:42;;;;;;;55.73;15.67;;;;;3.50;96248.00;;;;8499868;27;20236;-76
2022/11/28 03:01:45;;;;;;;60.60;16.03;;;;;3.50;96250.00;;;;8499999;27;20235;-76
2022/11/28 03:05:53;;;;;;;56.33;16.53;;;;;3.50;96243.00;;;;8499385;27;20229;-76
2022/11/28 03:10:08;;;;;;;52.87;15.87;;;;;3.60;96241.00;;;;8500350;27;20201;-76
2022/11/28 03:14:17;;;;;;;64.40;16.60;;;;;3.60;96236.00;;;;8499503;27;20190;-75
2022/11/28 03:18:24;;;;;;;48.87;15.70;;;;;3.60;96235.00;;;;8500094;27;20186;-75
2022/11/28 03:23:01;;;;;;;56.77;15.70;;;;;3.60;96235.00;;;;8497893;27;20674;-75
2022/11/28 03:27:43;;;;;;;53.77;15.10;;;;;3.50;96218.00;;;;8498630;27;20227;-75
2022/11/28 03:31:57;;;;;;;52.43;15.27;;;;;3.50;96205.00;;;;8498938;27;20193;-75
2022/11/28 03:36:26;;;;;;;59.83;15.40;;;;;3.40;96205.00;;;;8499501;27;20288;-75
2022/11/28 03:40:36;;;;;;;57.70;15.87;;;;;3.40;96199.00;;;;8498811;27;20520;-75
2022/11/28 03:45:08;;;;;;;53.67;15.63;;;;;3.40;96197.00;;;;8497721;27;20577;-75
2022/11/28 03:49:43;;;;;;;61.67;16.70;;;;;3.40;96204.00;;;;8497583;28;20194;-75
2022/11/28 03:53:51;;;;;;;53.63;16.00;;;;;3.40;96190.00;;;;8499665;28;20211;-75
2022/11/28 03:58:25;;;;;;;51.07;14.77;;;;;3.40;96189.00;;;;8498638;27;20592;-75
2022/11/28 04:08:10;;;;;;;47.97;14.10;;;;;3.40;96178.00;;;;8500796;27;20224;-75
2022/11/28 04:12:44;;;;;;;58.27;14.77;;;;;3.50;96181.00;;;;8501143;27;20201;-75
2022/11/28 04:17:18;;;;;;;49.03;15.17;;;;;3.40;96171.00;;;;8503604;27;20189;-75
2022/11/28 04:21:54;;;;;;;49.70;14.77;;;;;3.40;96133.00;;;;8502309;27;20239;-77
2022/11/28 04:26:03;;;;;;;56.03;16.70;;;;;3.30;96141.00;;;;8504863;27;20275;-77
2022/11/28 04:30:39;;;;;;;56.40;17.03;;;;;3.30;96138.00;;;;8500626;27;20265;-77
2022/11/28 04:35:25;;;;;;;55.83;23.43;;;;;3.30;96135.00;;;;8497576;27;20200;-77
2022/11/28 04:39:55;;;;;;;54.80;15.83;;;;;3.30;96140.00;;;;8503478;27;20543;-76
2022/11/28 04:49:36;;;;;;;40.17;12.67;;;;;3.30;96124.00;;;;8490169;27;20700;-75
2022/11/28 04:54:06;;;;;;;60.70;21.80;;;;;3.30;96124.00;;;;8495670;27;20235;-75
2022/11/28 04:58:41;;;;;;;51.27;17.37;;;;;3.30;96128.00;;;;8502178;27;20189;-75
2022/11/28 05:03:16;;;;;;;47.57;15.03;;;;;3.30;96136.00;;;;8500692;27;20210;-75
2022/11/28 05:07:20;;;;;;;43.87;13.47;;;;;3.30;96121.00;;;;8503754;27;20259;-76
2022/11/28 05:11:54;;;;;;;64.10;16.30;;;;;3.30;96116.00;;;;8502043;27;20713;-75
2022/11/28 05:16:30;;;;;;;52.33;15.07;;;;;3.30;96115.00;;;;8502215;27;20201;-75
2022/11/28 05:21:09;;;;;;;55.50;14.63;;;;;3.30;96105.00;;;;8503065;27;20657;-75
2022/11/28 05:25:49;;;;;;;41.30;13.43;;;;;3.30;96121.00;;;;8502999;27;20266;-75
2022/11/28 05:30:25;;;;;;;34.33;11.60;;;;;3.30;96104.00;;;;8500745;27;20220;-75
2022/11/28 05:35:02;;;;;;;41.57;13.63;;;;;3.20;96112.00;;;;8502748;27;20201;-75
2022/11/28 05:39:39;;;;;;;39.90;13.17;;;;;3.20;96118.00;;;;8501419;27;20193;-75
2022/11/28 05:43:44;;;;;;;44.23;13.83;;;;;3.30;96102.00;;;;8502135;27;20196;-75
2022/11/28 05:48:18;;;;;;;48.77;14.47;;;;;3.30;96088.00;;;;8500275;27;20754;-75
2022/11/28 05:52:55;;;;;;;43.33;13.33;;;;;3.30;96112.00;;;;8502338;27;20692;-75
2022/11/28 05:56:58;;;;;;;45.60;13.40;;;;;3.40;96103.00;;;;8501758;27;20231;-75
2022/11/28 06:01:37;;;;;;;47.60;14.63;;;;;3.40;96106.00;;;;8501700;27;20194;-75
2022/11/28 06:06:12;;;;;;;43.50;14.33;;;;;3.40;96098.00;;;;8500574;27;20240;-75
2022/11/28 06:10:55;;;;;;;39.93;12.63;;;;;3.40;96097.00;;;;8501671;27;20281;-75
2022/11/28 06:15:22;;;;;;;40.93;12.70;;;;;3.40;96084.00;;;;8501485;27;20198;-75
2022/11/28 06:19:27;;;;;;;44.63;13.47;;;;;3.40;96087.00;;;;8501227;27;20190;-75
2022/11/28 06:24:01;;;;;;;38.83;13.83;;;;;3.40;96094.00;;;;8500355;27;20189;-75
2022/11/28 06:28:38;;;;;;;36.33;12.50;;;;;3.40;96083.00;;;;8500102;27;20247;-75
2022/11/28 06:33:15;;;;;;;38.17;13.80;;;;;3.40;96082.00;;;;8501197;27;20201;-75
2022/11/28 06:37:53;;;;;;;33.37;13.50;;;;;3.40;96043.00;;;;8500834;27;20190;-75
2022/11/28 06:42:30;;;;;;;29.40;12.87;;;;;3.30;96031.00;;;;8499028;27;20201;-75
2022/11/28 06:47:07;;;;;;;43.50;13.37;;;;;3.30;96042.00;;;;8500053;27;20217;-76
2022/11/28 06:51:44;;;;;;;43.57;13.00;;;;;3.30;96030.00;;;;8497100;27;20190;-76
2022/11/28 06:56:23;;;;;;;33.80;13.37;;;;;3.30;96049.00;;;;8499448;27;20204;-76
2022/11/28 07:00:57;;;;;;;34.60;12.03;;;;;3.40;96054.00;;;;8498353;27;20201;-73
2022/11/28 07:05:00;;;;;;;33.47;11.97;;;;;3.40;96072.00;;;;8498158;27;20190;-73
2022/11/28 07:09:04;;;;;;;32.40;12.60;;;;;3.50;96092.00;;;;8499836;27;20232;-73
2022/11/28 07:13:39;;;;;;;36.20;13.80;;;;;3.60;96087.00;;;;8499518;27;20388;-73
2022/11/28 07:18:13;;;;;;;35.80;13.53;;;;;3.60;96072.00;;;;8498651;27;20194;-73
2022/11/28 07:22:50;;;;;;;34.60;12.47;;;;;3.60;96071.00;;;;8499446;27;20654;-73
2022/11/28 07:27:26;;;;;;;34.90;13.40;;;;;3.60;96056.00;;;;8499827;27;20670;-74
2022/11/28 07:32:06;;;;;;;34.33;12.43;;;;;3.60;96054.00;;;;8499021;27;20228;-73
2022/11/28 07:36:40;;;;;;;34.60;12.80;;;;;3.60;96061.00;;;;8498751;27;20194;-73
2022/11/28 07:40:43;;;;;;;33.33;13.17;;;;;3.70;96047.00;;;;8498414;27;20649;-74
2022/11/28 07:45:20;;;;;;;37.10;12.80;;;;;3.80;96058.00;;;;8495314;27;20192;-73
2022/11/28 07:50:00;;;;;;;36.80;12.53;;;;;3.80;96065.00;;;;8494911;27;20232;-73
2022/11/28 07:54:34;;;;;;;34.83;11.73;;;;;3.90;96053.00;;;;8491172;28;20692;-73
2022/11/28 07:59:12;;;;;;;12.40;6.43;;;;;3.90;96069.00;;;;8496422;28;20201;-73
2022/11/28 08:03:49;;;;;;;25.40;12.10;;;;;4.00;96086.00;;;;8498850;28;20201;-73
2022/11/28 08:07:54;;;;;;;32.03;13.00;;;;;4.00;96091.00;;;;8498502;28;20658;-73
2022/11/28 08:12:28;;;;;;;33.03;13.10;;;;;4.00;96098.00;;;;8496497;28;20225;-74
2022/11/28 08:17:05;;;;;;;32.00;11.93;;;;;4.10;96115.00;;;;8498718;28;20246;-79
2022/11/28 08:21:42;;;;;;;28.70;11.77;;;;;4.10;96110.00;;;;8497408;28;20196;-79
2022/11/28 08:26:22;;;;;;;25.97;10.27;;;;;4.20;96121.00;;;;8489977;28;20189;-79
2022/11/28 08:30:57;;;;;;;40.00;13.77;;;;;4.10;96123.00;;;;8497333;28;20215;-78
2022/11/28 08:35:34;;;;;;;32.77;12.50;;;;;4.20;96102.00;;;;8497976;28;20621;-79
2022/11/28 08:40:10;;;;;;;34.63;13.70;;;;;4.30;96097.00;;;;8498150;28;20561;-78
2022/11/28 08:44:49;;;;;;;31.70;13.57;;;;;4.50;96117.00;;;;8496631;28;20500;-78
2022/11/28 08:49:22;;;;;;;31.80;13.33;;;;;4.70;96130.00;;;;8497877;28;20267;-79
2022/11/28 08:53:25;;;;;;;28.13;12.80;;;;;4.80;96128.00;;;;8500306;27;20190;-79
2022/11/28 08:58:02;;;;;;;30.70;13.10;;;;;4.90;96121.00;;;;8503525;27;20243;-78
2022/11/28 09:02:41;;;;;;;31.73;11.87;;;;;4.80;96100.00;;;;8538158;27;20189;-78
2022/11/28 09:06:44;;;;;;;31.20;12.90;;;;;4.80;96064.00;;;;8537588;27;20228;-79
2022/11/28 09:10:57;;;;;;;28.83;10.03;;;;;4.80;96073.00;;;;8537589;27;20234;-79
2022/11/28 09:15:34;;;;;;;32.30;14.23;;;;;4.80;96085.00;;;;8538072;27;20214;-79
2022/11/28 09:20:15;;;;;;;29.50;13.37;;;;;4.90;96077.00;;;;8535183;27;20189;-79
2022/11/28 09:24:46;;;;;;;28.13;12.93;;;;;5.10;96077.00;;;;8538145;27;20194;-78
2022/11/28 09:29:22;;;;;;;34.23;15.07;;;;;5.30;96078.00;;;;8536789;27;20289;-79
2022/11/28 09:34:02;;;;;;;27.83;13.10;;;;;5.50;96083.00;;;;8537825;27;20197;-77
2022/11/28 09:38:38;;;;;;;22.53;11.93;;;;;5.60;96070.00;;;;8535141;27;20181;-79
2022/11/28 09:43:16;;;;;;;23.90;10.70;;;;;5.70;96083.00;;;;8536803;27;20242;-78
2022/11/28 09:47:50;;;;;;;27.23;13.73;;;;;5.80;96094.00;;;;8532424;27;20225;-76
2022/11/28 09:52:32;;;;;;;25.30;11.80;;;;;5.90;96082.00;;;;8536304;27;20702;-76
2022/11/28 09:57:08;;;;;;;22.97;11.73;;;;;6.00;96077.00;;;;8535701;27;20266;-80
2022/11/28 10:01:44;;;;;;;22.03;10.70;;;;;6.20;96078.00;;;;8536298;27;20200;-81
2022/11/28 10:06:18;;;;;;;21.40;10.73;;;;;6.30;96076.00;;;;8535134;27;20193;-81
2022/11/28 10:10:50;;;;;;;20.07;10.33;;;;;6.40;96077.00;;;;8535678;27;20264;-82
2022/11/28 10:15:34;;;;;;;20.80;10.43;;;;;6.60;96070.00;;;;8535550;27;20193;-81
2022/11/28 10:20:03;;;;;;;17.10;9.50;;;;;6.60;96072.00;;;;8535477;27;20565;-85
2022/11/28 10:24:37;;;;;;;22.37;10.43;;;;;6.80;96066.00;;;;8534220;27;20193;-81
2022/11/28 10:29:21;;;;;;;19.83;9.83;;;;;6.80;96063.00;;;;8534994;27;20281;-80
2022/11/28 10:33:30;;;;;;;21.43;10.30;;;;;6.90;96047.00;;;;8534960;27;20683;-80
2022/11/28 10:38:00;;;;;;;16.73;9.30;;;;;6.90;96053.00;;;;8535787;27;20575;-80
2022/11/28 10:42:42;;;;;;;22.93;11.23;;;;;6.90;96040.00;;;;8534344;27;20239;-80
2022/11/28 10:47:16;;;;;;;22.17;10.83;;;;;6.80;96036.00;;;;8532794;27;20215;-80
2022/11/28 10:51:56;;;;;;;23.97;11.97;;;;;6.70;96048.00;;;;8534617;27;20189;-81
2022/11/28 10:56:32;;;;;;;20.70;10.90;;;;;6.60;96037.00;;;;8533482;27;20200;-82
2022/11/28 11:01:04;;;;;;;22.23;10.30;;;;;6.60;96039.00;;;;8534349;27;20185;-82
2022/11/28 11:05:38;;;;;;;20.87;10.33;;;;;6.70;96042.00;;;;8532898;27;20196;-81
2022/11/28 11:15:22;;;;;;;23.63;10.97;;;;;6.90;96042.00;;;;8533010;27;20218;-80
2022/11/28 11:19:53;;;;;;;21.57;10.73;;;;;7.10;96036.00;;;;8533221;27;20189;-80
2022/11/28 11:24:30;;;;;;;19.00;10.60;;;;;7.20;96038.00;;;;8533615;27;20204;-80
2022/11/28 11:29:19;;;;;;;29.77;11.37;;;;;7.30;96030.00;;;;8532759;27;20282;-80
2022/11/28 11:33:46;;;;;;;23.70;11.73;;;;;7.40;96034.00;;;;8532287;27;20276;-80
2022/11/28 11:38:27;;;;;;;19.27;10.77;;;;;7.40;96045.00;;;;8533885;27;20610;-80
2022/11/28 11:42:59;;;;;;;25.20;11.00;;;;;7.40;96056.00;;;;8533775;27;20226;-80
2022/11/28 11:47:07;;;;;;;21.93;11.57;;;;;7.40;96057.00;;;;8533612;27;20189;-80
2022/11/28 11:51:40;;;;;;;23.93;10.83;;;;;7.50;96058.00;;;;8533586;27;20583;-79
2022/11/28 11:56:14;;;;;;;21.40;10.33;;;;;7.60;96053.00;;;;8533092;27;20229;-80
2022/11/28 12:00:53;;;;;;;18.70;10.40;;;;;7.70;96042.00;;;;8532862;27;20189;-80
2022/11/28 12:05:30;;;;;;;17.40;9.63;;;;;7.70;96047.00;;;;8532454;27;20189;-80
2022/11/28 12:15:32;;;;;;;22.70;9.87;;;;;7.60;96034.00;;;;8532743;27;20193;-79
2022/11/28 12:20:09;;;;;;;19.13;9.50;;;;;7.60;96038.00;;;;8532288;27;20193;-79
2022/11/28 12:24:40;;;;;;;20.00;10.23;;;;;7.60;96036.00;;;;8532793;27;20189;-79
2022/11/28 12:28:58;;;;;;;18.55;10.40;;;;;7.50;96039.00;;;;8537488;27;20650;-79
2022/11/28 12:33:29;;;;;;;18.53;10.23;;;;;7.50;96043.00;;;;8539784;27;20196;-79
2022/11/28 12:38:08;;;;;;;20.07;10.67;;;;;7.50;96037.00;;;;8538262;27;20197;-79
2022/11/28 12:42:42;;;;;;;20.07;10.87;;;;;7.50;96039.00;;;;8538470;27;20190;-76
2022/11/28 12:47:14;;;;;;;17.83;9.97;;;;;7.50;96032.00;;;;8537989;27;20193;-76
2022/11/28 12:52:02;;;;;;;17.87;10.37;;;;;7.50;96039.00;;;;8538240;27;20178;-76
2022/11/28 12:56:40;;;;;;;19.47;10.33;;;;;7.50;96030.00;;;;8537825;27;20196;-76
2022/11/28 13:01:14;;;;;;;24.57;11.23;;;;;7.50;96035.00;;;;8538877;27;20193;-76
2022/11/28 13:05:46;;;;;;;18.23;10.37;;;;;7.50;96035.00;;;;8536969;27;20238;-77
2022/11/28 13:10:17;;;;;;;18.08;10.15;;;;;7.40;96014.00;;;;8538936;27;20660;-76
2022/11/28 13:14:56;;;;;;;21.92;11.55;;;;;7.40;96013.00;;;;8538180;27;20580;-76
2022/11/28 13:19:33;;;;;;;22.87;11.50;;;;;7.30;96013.00;;;;8537818;27;20276;-77
2022/11/28 13:23:43;;;;;;;19.77;10.60;;;;;7.30;96017.00;;;;8537719;27;20194;-76
2022/11/28 13:28:13;;;;;;;19.20;10.23;;;;;7.20;96022.00;;;;8536589;27;20217;-77
2022/11/28 13:32:54;;;;;;;18.07;10.20;;;;;7.20;96020.00;;;;8536854;27;20201;-76
2022/11/28 13:37:33;;;;;;;18.37;10.80;;;;;7.10;96021.00;;;;8536974;27;20284;-76
2022/11/28 13:42:36;;;;;;;18.05;9.75;;;;;7.00;96028.00;;;;8536417;27;20193;-77
2022/11/28 13:47:27;;;;;;;26.57;12.87;;;;;6.90;96031.00;;;;8536893;27;20522;-77
2022/11/28 13:51:32;;;;;;;23.63;10.40;;;;;6.90;96034.00;;;;8536437;27;20227;-77
2022/11/28 13:55:43;;;;;;;19.30;10.03;;;;;6.80;96027.00;;;;8536030;27;20534;-76
2022/11/28 13:59:54;;;;;;;24.77;11.73;;;;;6.70;96032.00;;;;8536082;27;20198;-77
2022/11/28 14:04:26;;;;;;;20.63;11.20;;;;;6.60;96026.00;;;;8536084;27;20235;-77
2022/11/28 14:08:34;;;;;;;21.03;10.33;;;;;6.50;96021.00;;;;8536004;27;20224;-77
2022/11/28 14:12:45;;;;;;;20.50;12.03;;;;;6.40;96033.00;;;;8536356;27;20234;-77
2022/11/28 14:17:22;;;;;;;21.03;10.47;;;;;6.40;96037.00;;;;8535528;27;20257;-77
2022/11/28 14:21:37;;;;;;;18.97;10.70;;;;;6.40;96029.00;;;;8534559;27;20189;-77
2022/11/28 14:26:11;;;;;;;20.57;10.67;;;;;6.30;96034.00;;;;8534771;27;20674;-77
2022/11/28 14:30:40;;;;;;;30.30;18.67;;;;;6.20;96033.00;;;;8535797;27;20654;-76
2022/11/28 14:35:16;;;;;;;22.70;13.63;;;;;6.10;96030.00;;;;8534419;27;20193;-77
2022/11/28 14:39:49;;;;;;;32.70;15.93;;;;;6.10;96036.00;;;;8536717;27;20198;-76
2022/11/28 14:43:54;;;;;;;30.47;14.80;;;;;6.00;96034.00;;;;8534410;27;20193;-76
2022/11/28 14:48:14;;;;;;;26.17;13.07;;;;;5.90;96035.00;;;;8535261;27;20211;-76
2022/11/28 14:52:23;;;;;;;22.27;11.97;;;;;5.90;96036.00;;;;8533435;27;20189;-77
2022/11/28 14:56:58;;;;;;;24.20;13.37;;;;;5.80;96042.00;;;;8534701;27;20514;-77
2022/11/28 15:01:45;;;;;;;26.03;12.70;;;;;5.90;96043.00;;;;8534254;27;20189;-77
2022/11/28 15:06:17;;;;;;;28.07;13.63;;;;;5.80;96044.00;;;;8534761;27;20515;-77
2022/11/28 15:10:53;;;;;;;43.13;24.83;;;;;5.80;96050.00;;;;8533960;27;20270;-77
2022/11/28 15:14:58;;;;;;;25.87;13.73;;;;;5.70;96037.00;;;;8533114;27;20218;-77
2022/11/28 15:19:08;;;;;;;44.03;28.57;;;;;5.70;96037.00;;;;8533752;27;20257;-78
2022/11/28 15:23:23;;;;;;;33.67;15.40;;;;;5.60;96031.00;;;;8532581;27;20197;-77
2022/11/28 15:27:27;;;;;;;41.05;22.83;;;;;5.50;96034.00;;;;8532584;27;20475;-78
2022/11/28 15:31:30;;;;;;;26.70;14.37;;;;;5.70;96040.00;;;;8533070;27;20577;-77
2022/11/28 15:36:20;;;;;;;24.87;13.20;;;;;5.60;96035.00;;;;8532239;27;20197;-77
2022/11/28 15:40:49;;;;;;;29.60;13.03;;;;;5.50;96038.00;;;;8533286;27;20185;-76
2022/11/28 15:45:23;;;;;;;32.20;15.00;;;;;5.40;96036.00;;;;8533188;27;20613;-76
2022/11/28 15:50:01;;;;;;;30.30;13.63;;;;;5.40;96039.00;;;;8532400;27;20225;-76
2022/11/28 15:54:35;;;;;;;24.63;12.40;;;;;5.30;96039.00;;;;8531141;27;20194;-76
2022/11/28 15:59:13;;;;;;;25.33;13.10;;;;;5.30;96047.00;;;;8533295;27;20242;-79
2022/11/28 16:03:52;;;;;;;41.00;18.43;;;;;5.30;96040.00;;;;8533522;27;20193;-79
2022/11/28 16:07:55;;;;;;;28.93;14.77;;;;;5.20;96041.00;;;;8539358;27;20201;-79
2022/11/28 16:12:29;;;;;;;27.27;15.27;;;;;5.20;96039.00;;;;8539102;27;20212;-78
2022/11/28 16:16:36;;;;;;;28.70;14.67;;;;;5.20;96044.00;;;;8539565;27;20193;-79
2022/11/28 16:21:06;;;;;;;36.87;17.47;;;;;5.20;96047.00;;;;8539150;27;20208;-80
2022/11/28 16:25:43;;;;;;;29.37;15.33;;;;;5.20;96056.00;;;;8539668;27;20615;-78
2022/11/28 16:30:25;;;;;;;31.20;14.73;;;;;5.20;96048.00;;;;8536605;27;20650;-79
2022/11/28 16:35:11;;;;;;;28.27;13.63;;;;;5.20;96047.00;;;;8535794;27;20193;-78
2022/11/28 16:39:42;;;;;;;29.63;14.53;;;;;5.20;96047.00;;;;8538453;27;20185;-78
2022/11/28 16:44:21;;;;;;;32.47;13.70;;;;;5.10;96053.00;;;;8536959;27;20189;-79
2022/11/28 16:48:56;;;;;;;27.47;13.87;;;;;5.20;96054.00;;;;8538279;27;20218;-79
2022/11/28 16:53:43;;;;;;;28.07;12.83;;;;;5.10;96040.00;;;;8537389;27;20190;-79
2022/11/28 16:58:17;;;;;;;31.40;14.57;;;;;5.10;96044.00;;;;8537962;27;20189;-78
2022/11/28 17:02:51;;;;;;;25.00;13.10;;;;;5.00;96047.00;;;;8537826;27;20572;-79
2022/11/28 17:07:25;;;;;;;25.63;12.20;;;;;5.00;96034.00;;;;8537851;27;20253;-79
2022/11/28 17:12:04;;;;;;;31.30;13.20;;;;;4.90;96033.00;;;;8537375;27;20246;-77
2022/11/28 17:16:38;;;;;;;31.23;13.80;;;;;4.90;96050.00;;;;8536681;27;20249;-78
2022/11/28 17:21:13;;;;;;;32.27;14.63;;;;;4.90;96045.00;;;;8538392;27;20237;-78
2022/11/28 17:25:51;;;;;;;33.23;12.97;;;;;4.90;96047.00;;;;8536796;27;20198;-77
2022/11/28 17:30:29;;;;;;;561.77;294.03;;;;;4.90;96036.00;;;;8536034;27;20232;-77
2022/11/28 17:35:09;;;;;;;60.57;31.00;;;;;4.90;96042.00;;;;8537142;27;20530;-78
2022/11/28 17:40:31;;;;;;;36.33;17.00;;;;;4.90;96039.00;;;;8534033;27;20222;-77
2022/11/28 17:49:37;;;;;;;37.33;16.57;;;;;4.90;96044.00;;;;8535619;27;20197;-77
2022/11/28 17:54:15;;;;;;;34.47;17.43;;;;;4.90;96049.00;;;;8536067;27;20227;-77
2022/11/28 17:58:51;;;;;;;32.53;14.40;;;;;4.90;96053.00;;;;8536258;27;20189;-77
2022/11/28 18:03:25;;;;;;;32.60;15.57;;;;;4.90;96054.00;;;;8535270;27;20197;-77
2022/11/28 18:08:03;;;;;;;31.83;15.50;;;;;4.90;96050.00;;;;8536575;27;20208;-76
2022/11/28 18:12:41;;;;;;;34.40;17.07;;;;;4.90;96054.00;;;;8536370;27;20598;-77
2022/11/28 18:17:18;;;;;;;33.80;18.23;;;;;4.90;96056.00;;;;8517669;27;20193;-77
2022/11/28 18:21:54;;;;;;;39.67;17.33;;;;;4.90;96048.00;;;;8534618;27;20209;-77
2022/11/28 18:26:33;;;;;;;44.10;19.43;;;;;4.90;96046.00;;;;8535595;27;20219;-76
2022/11/28 18:31:08;;;;;;;41.13;19.93;;;;;4.90;96042.00;;;;8533708;27;20229;-76
2022/11/28 18:35:45;;;;;;;35.43;15.53;;;;;4.90;96037.00;;;;8535095;27;20201;-77
2022/11/28 18:40:24;;;;;;;35.60;16.57;;;;;4.90;96039.00;;;;8529537;27;20352;-77
2022/11/28 18:44:59;;;;;;;37.97;16.30;;;;;4.80;96040.00;;;;8533817;27;20194;-77
2022/11/28 18:49:32;;;;;;;34.43;15.40;;;;;4.80;96040.00;;;;8534408;27;20185;-78
2022/11/28 18:54:09;;;;;;;39.23;15.57;;;;;4.80;96051.00;;;;8532903;27;20193;-78
2022/11/28 18:58:47;;;;;;;37.90;15.67;;;;;4.70;96039.00;;;;8535269;27;20302;-79
2022/11/28 19:03:22;;;;;;;34.83;16.30;;;;;4.70;96040.00;;;;8533773;27;20189;-78
2022/11/28 19:07:56;;;;;;;34.77;15.63;;;;;4.70;96056.00;;;;8533572;27;20254;-77
2022/11/28 19:12:33;;;;;;;36.13;15.83;;;;;4.70;96054.00;;;;8534808;27;20216;-77
2022/11/28 19:17:11;;;;;;;38.13;15.97;;;;;4.60;96041.00;;;;8534137;27;20242;-77
2022/11/28 19:21:47;;;;;;;34.53;14.80;;;;;4.60;96040.00;;;;8532866;27;20197;-76
2022/11/28 19:26:26;;;;;;;34.13;15.33;;;;;4.60;96033.00;;;;8533810;27;20193;-77
2022/11/28 19:31:04;;;;;;;35.57;15.07;;;;;4.50;96035.00;;;;8533846;27;20221;-77
2022/11/28 19:35:37;;;;;;;33.77;15.53;;;;;4.50;96033.00;;;;8532182;27;20197;-78
2022/11/28 19:40:15;;;;;;;38.93;16.10;;;;;4.50;96038.00;;;;8533509;27;20654;-79
2022/11/28 19:44:22;;;;;;;33.17;15.60;;;;;4.50;96036.00;;;;8532555;27;20185;-79
2022/11/28 19:48:28;;;;;;;35.17;16.03;;;;;4.50;96034.00;;;;8532994;27;20219;-79
2022/11/28 19:52:31;;;;;;;32.77;15.47;;;;;4.60;96041.00;;;;8531589;27;20280;-79
2022/11/28 19:56:34;;;;;;;33.37;15.47;;;;;4.60;96041.00;;;;8533122;27;20235;-79
2022/11/28 20:01:13;;;;;;;35.80;15.33;;;;;4.60;96052.00;;;;8532124;27;20197;-79
2022/11/28 20:05:17;;;;;;;38.27;16.27;;;;;4.50;96051.00;;;;8532627;27;20293;-80
2022/11/28 20:09:54;;;;;;;36.33;14.60;;;;;4.50;96048.00;;;;8530036;27;20193;-81
2022/11/28 20:19:30;;;;;;;29.77;14.97;;;;;4.50;96059.00;;;;8532725;27;20186;-79
2022/11/28 20:24:06;;;;;;;32.57;15.27;;;;;4.50;96057.00;;;;8532408;27;20205;-78
2022/11/28 20:28:40;;;;;;;37.27;15.97;;;;;4.50;96053.00;;;;8531039;27;20193;-79
2022/11/28 20:33:14;;;;;;;33.97;14.70;;;;;4.50;96068.00;;;;8529441;27;20254;-78
2022/11/28 20:37:51;;;;;;;32.43;14.53;;;;;4.40;96064.00;;;;8532987;27;20635;-79
2022/11/28 20:47:13;;;;;;;33.27;14.57;;;;;4.30;96067.00;;;;8533063;27;20542;-76
2022/11/28 20:51:50;;;;;;;34.27;15.10;;;;;4.40;96070.00;;;;8539011;27;20265;-77
2022/11/28 20:56:28;;;;;;;29.70;15.93;;;;;4.40;96069.00;;;;8538116;27;20219;-77
2022/11/28 21:01:02;;;;;;;36.50;16.23;;;;;4.30;96069.00;;;;8538487;27;20539;-76
2022/11/28 21:05:43;;;;;;;32.47;14.93;;;;;4.30;96063.00;;;;8538205;27;20190;-77
2022/11/28 21:10:17;;;;;;;38.87;16.97;;;;;4.30;96065.00;;;;8537292;27;20193;-77
2022/11/28 21:14:54;;;;;;;37.13;16.13;;;;;4.30;96075.00;;;;8537258;27;20205;-78
2022/11/28 21:19:30;;;;;;;39.00;16.73;;;;;4.30;96072.00;;;;8535646;27;20234;-77
2022/11/28 21:24:10;;;;;;;42.10;17.43;;;;;4.30;96067.00;;;;8537791;27;20208;-77
2022/11/28 21:28:14;;;;;;;37.77;18.07;;;;;4.30;96067.00;;;;8537414;27;20221;-77
2022/11/28 21:32:17;;;;;;;45.37;19.33;;;;;4.30;96061.00;;;;8537771;27;20614;-77
2022/11/28 21:36:53;;;;;;;36.33;17.30;;;;;4.30;96061.00;;;;8536231;27;20219;-77
2022/11/28 21:40:58;;;;;;;37.17;17.43;;;;;4.40;96062.00;;;;8536371;27;20206;-77
2022/11/28 21:45:33;;;;;;;37.80;16.87;;;;;4.40;96054.00;;;;8535941;27;20197;-77
2022/11/28 21:49:36;;;;;;;37.00;17.80;;;;;4.40;96057.00;;;;8537509;27;20197;-77
2022/11/28 21:53:39;;;;;;;34.70;16.80;;;;;4.40;96052.00;;;;8535554;27;20225;-77
2022/11/28 21:57:44;;;;;;;38.73;17.07;;;;;4.40;96055.00;;;;8536230;27;20200;-76
2022/11/28 22:02:21;;;;;;;40.50;17.10;;;;;4.40;96047.00;;;;8534902;27;20217;-77
2022/11/28 22:06:32;;;;;;;34.87;16.17;;;;;4.40;96060.00;;;;8535644;27;20178;-76
2022/11/28 22:10:37;;;;;;;38.57;16.77;;;;;4.30;96052.00;;;;8535879;27;20520;-76
2022/11/28 22:14:41;;;;;;;36.47;17.43;;;;;4.40;96062.00;;;;8535712;27;20519;-77
2022/11/28 22:18:45;;;;;;;37.10;16.73;;;;;4.40;96053.00;;;;8535115;27;20210;-77
2022/11/28 22:22:49;;;;;;;36.47;16.40;;;;;4.30;96065.00;;;;8534888;27;20208;-77
2022/11/28 22:26:55;;;;;;;39.70;16.57;;;;;4.30;96056.00;;;;8535280;27;20680;-77
2022/11/28 22:31:00;;;;;;;33.10;16.20;;;;;4.30;96057.00;;;;8535916;27;20226;-77
2022/11/28 22:35:03;;;;;;;39.67;17.53;;;;;4.40;96054.00;;;;8534870;27;20634;-77
2022/11/28 22:39:40;;;;;;;37.83;17.73;;;;;4.40;96063.00;;;;8534704;27;20533;-77
2022/11/28 22:43:43;;;;;;;48.50;19.80;;;;;4.40;96058.00;;;;8534173;27;20196;-77